createdAt,value
2023-04-18T00:00:40.213Z,10.77
2023-04-18T00:05:44.020Z,10.76
2023-04-18T00:10:46.664Z,10.75
2023-04-18T00:15:48.515Z,10.73
2023-04-18T00:20:50.503Z,10.72
2023-04-18T00:25:52.294Z,10.68
2023-04-18T00:30:54.051Z,10.67
2023-04-18T00:35:55.758Z,10.64
2023-04-18T00:40:57.721Z,10.62
2023-04-18T00:46:01.631Z,10.58
2023-04-18T00:51:03.877Z,10.53
2023-04-18T00:56:06.929Z,10.52
2023-04-18T01:01:09.555Z,10.48
2023-04-18T01:06:11.907Z,10.48
2023-04-18T01:11:13.681Z,10.47
2023-04-18T01:16:15.782Z,10.44
2023-04-18T01:21:18.312Z,10.45
2023-04-18T01:26:20.510Z,10.45
2023-04-18T01:31:22.343Z,10.44
2023-04-18T01:36:24.156Z,10.42
2023-04-18T01:41:25.919Z,10.42
2023-04-18T01:46:28.868Z,10.40
2023-04-18T01:51:31.424Z,10.40
2023-04-18T01:56:33.235Z,10.39
2023-04-18T02:01:36.532Z,10.38
2023-04-18T02:06:38.272Z,10.36
2023-04-18T02:11:40.315Z,10.36
2023-04-18T02:16:42.110Z,10.33
2023-04-18T02:21:45.041Z,10.34
2023-04-18T02:26:46.947Z,10.32
2023-04-18T02:31:48.891Z,10.29
2023-04-18T02:36:50.706Z,10.25
2023-04-18T02:41:52.421Z,10.21
2023-04-18T02:46:54.148Z,10.16
2023-04-18T02:51:58.055Z,10.13
2023-04-18T02:56:59.843Z,10.12
2023-04-18T03:02:21.893Z,10.16
2023-04-18T03:07:29.055Z,10.14
2023-04-18T03:12:31.079Z,10.12
2023-04-18T03:17:33.231Z,10.11
2023-04-18T03:22:35.293Z,10.10
2023-04-18T03:27:37.354Z,10.09
2023-04-18T03:32:39.477Z,10.07
2023-04-18T03:37:41.341Z,10.10
2023-04-18T03:42:44.650Z,10.09
2023-04-18T03:47:46.713Z,10.11
2023-04-18T03:52:49.089Z,10.10
2023-04-18T03:57:52.605Z,10.08
2023-04-18T04:03:01.890Z,10.05
2023-04-18T04:08:03.961Z,10.07
2023-04-18T04:13:05.749Z,10.09
2023-04-18T04:18:10.622Z,10.09
2023-04-18T04:23:16.421Z,10.10
2023-04-18T04:28:23.952Z,10.09
2023-04-18T04:33:34.545Z,10.10
2023-04-18T04:38:40.716Z,10.13
2023-04-18T04:43:43.654Z,10.16
2023-04-18T04:48:53.178Z,10.18
2023-04-18T04:53:55.018Z,10.17
2023-04-18T04:58:57.712Z,10.15
2023-04-18T05:04:06.352Z,10.17
2023-04-18T05:09:08.365Z,10.16
2023-04-18T05:14:10.258Z,10.15
2023-04-18T05:19:12.046Z,10.16
2023-04-18T05:24:14.237Z,10.19
2023-04-18T05:29:16.281Z,10.22
2023-04-18T05:34:18.064Z,10.25
2023-04-18T05:39:19.764Z,10.22
2023-04-18T05:44:21.792Z,10.23
2023-04-18T05:49:23.791Z,10.23
2023-04-18T05:54:25.759Z,10.25
2023-04-18T05:59:27.436Z,10.23
2023-04-18T06:04:29.469Z,10.21
2023-04-18T06:09:31.403Z,10.17
2023-04-18T06:14:33.165Z,10.19
2023-04-18T06:19:34.883Z,10.19
2023-04-18T06:24:37.440Z,10.23
2023-04-18T06:29:39.301Z,10.25
2023-04-18T06:34:41.087Z,10.26
2023-04-18T06:39:43.195Z,10.21
2023-04-18T06:44:44.967Z,10.22
2023-04-18T06:49:46.864Z,10.21
2023-04-18T06:54:48.680Z,10.25
2023-04-18T06:59:50.510Z,10.26
2023-04-18T07:04:52.227Z,10.31
2023-04-18T07:09:54.057Z,10.32
2023-04-18T07:14:55.773Z,10.40
2023-04-18T07:19:58.720Z,10.52
2023-04-18T07:25:00.455Z,10.61
2023-04-18T07:30:03.358Z,10.80
2023-04-18T07:35:05.490Z,10.94
2023-04-18T07:40:08.461Z,10.95
2023-04-18T07:45:10.595Z,11.09
2023-04-18T07:50:12.404Z,11.14
2023-04-18T07:55:15.025Z,11.01
2023-04-18T08:00:20.056Z,11.07
2023-04-18T08:05:21.876Z,11.10
2023-04-18T08:10:23.991Z,11.27
2023-04-18T08:15:27.578Z,11.28
2023-04-18T08:20:29.400Z,11.56
2023-04-18T08:25:31.770Z,11.64
2023-04-18T08:30:33.682Z,11.59
2023-04-18T08:35:35.808Z,11.47
2023-04-18T08:40:39.133Z,11.48
2023-04-18T08:45:41.928Z,11.59
2023-04-18T08:50:44.950Z,11.59
2023-04-18T08:55:50.690Z,11.73
2023-04-18T09:00:53.761Z,11.84
2023-04-18T09:06:20.281Z,11.77
2023-04-18T09:11:29.009Z,11.65
2023-04-18T09:16:45.243Z,12.00
2023-04-18T09:21:56.920Z,12.05
2023-04-18T09:26:59.990Z,12.09
2023-04-18T09:32:02.100Z,12.29
2023-04-18T09:37:09.299Z,12.74
2023-04-18T09:42:11.423Z,13.09
2023-04-18T09:47:13.219Z,14.46
2023-04-18T09:52:16.048Z,14.73
2023-04-18T09:57:18.605Z,15.33
2023-04-18T10:02:22.809Z,14.35
2023-04-18T10:07:26.266Z,14.40
2023-04-18T10:12:28.145Z,14.53
2023-04-18T10:17:36.760Z,13.79
2023-04-18T10:22:38.623Z,13.96
2023-04-18T10:27:56.523Z,13.95
2023-04-18T10:32:58.370Z,13.89
2023-04-18T10:38:02.830Z,13.79
2023-04-18T10:43:06.592Z,14.02
2023-04-18T10:48:39.344Z,14.18
2023-04-18T10:53:48.496Z,14.61
2023-04-18T10:58:52.303Z,14.11
2023-04-18T11:03:58.103Z,14.37
2023-04-18T11:09:14.021Z,14.44
2023-04-18T11:14:16.145Z,14.35
2023-04-18T11:19:20.433Z,13.84
2023-04-18T11:24:24.073Z,13.80
2023-04-18T11:29:26.100Z,13.76
2023-04-18T11:34:31.590Z,13.39
2023-04-18T11:39:42.560Z,12.98
2023-04-18T11:44:49.226Z,12.92
2023-04-18T11:50:06.727Z,12.72
2023-04-18T11:55:17.541Z,12.70
2023-04-18T12:00:37.535Z,12.38
2023-04-18T12:05:40.000Z,12.57
2023-04-18T12:10:50.668Z,12.79
2023-04-18T12:15:54.042Z,12.89
2023-04-18T12:20:56.016Z,13.00
2023-04-18T12:26:05.834Z,13.23
2023-04-18T12:31:07.924Z,13.49
2023-04-18T12:36:10.510Z,13.52
2023-04-18T12:41:12.664Z,13.49
2023-04-18T12:46:14.500Z,13.22
2023-04-18T12:51:16.298Z,13.32
2023-04-18T12:56:18.173Z,13.13
2023-04-18T13:01:20.163Z,13.41
2023-04-18T13:06:21.946Z,13.47
2023-04-18T13:11:28.747Z,13.21
2023-04-18T13:16:31.318Z,13.22
2023-04-18T13:21:33.204Z,13.07
2023-04-18T13:26:36.144Z,12.90
2023-04-18T13:31:38.150Z,12.94
2023-04-18T13:36:42.992Z,13.04
2023-04-18T13:41:45.505Z,13.44
2023-04-18T13:46:47.284Z,13.25
2023-04-18T13:51:53.644Z,13.41
2023-04-18T13:57:02.269Z,13.81
2023-04-18T14:02:04.399Z,13.70
2023-04-18T14:07:06.415Z,13.61
2023-04-18T14:12:08.305Z,13.45
2023-04-18T14:17:10.340Z,13.03
2023-04-18T14:22:12.146Z,12.78
2023-04-18T14:27:13.987Z,12.72
2023-04-18T14:32:15.745Z,12.61
2023-04-18T14:37:17.818Z,12.44
2023-04-18T14:42:19.600Z,12.29
2023-04-18T14:47:21.850Z,12.01
2023-04-18T14:52:23.962Z,11.89
2023-04-18T14:57:26.631Z,11.81
2023-04-18T15:02:28.696Z,11.78
2023-04-18T15:07:30.734Z,11.76
2023-04-18T15:12:32.928Z,11.79
2023-04-18T15:17:34.943Z,11.82
2023-04-18T15:22:37.224Z,11.75
2023-04-18T15:27:39.113Z,11.78
2023-04-18T15:32:42.180Z,11.96
2023-04-18T15:37:44.039Z,12.02
2023-04-18T15:42:46.473Z,12.07
2023-04-18T15:47:49.035Z,12.04
2023-04-18T15:52:50.846Z,11.99
2023-04-18T15:57:52.545Z,11.90
2023-04-18T16:02:55.086Z,11.88
2023-04-18T16:07:58.184Z,11.96
2023-04-18T16:13:03.254Z,12.02
2023-04-18T16:18:05.190Z,12.13
2023-04-18T16:23:07.232Z,12.12
2023-04-18T16:28:09.083Z,11.99
2023-04-18T16:33:11.736Z,11.86
2023-04-18T16:38:13.512Z,11.81
2023-04-18T16:43:15.212Z,11.70
2023-04-18T16:48:17.137Z,11.49
2023-04-18T16:53:18.918Z,11.37
2023-04-18T16:58:21.683Z,11.23
2023-04-18T17:03:23.640Z,11.15
2023-04-18T17:08:27.115Z,11.02
2023-04-18T17:13:31.562Z,10.92
2023-04-18T17:18:33.534Z,10.80
2023-04-18T17:23:35.357Z,10.73
2023-04-18T17:28:37.369Z,10.70
2023-04-18T17:33:39.152Z,10.63
2023-04-18T17:38:41.290Z,10.57
2023-04-18T17:43:44.265Z,10.50
2023-04-18T17:48:46.115Z,10.46
2023-04-18T17:53:47.939Z,10.42
2023-04-18T17:58:49.666Z,10.40
2023-04-18T18:03:53.707Z,10.38
2023-04-18T18:08:56.012Z,10.39
2023-04-18T18:13:57.799Z,10.38
2023-04-18T18:18:59.667Z,10.36
2023-04-18T18:24:01.506Z,10.36
2023-04-18T18:29:10.083Z,10.31
2023-04-18T18:34:12.359Z,10.26
2023-04-18T18:39:22.170Z,10.21
2023-04-18T18:44:27.417Z,10.13
2023-04-18T18:49:32.206Z,10.10
2023-04-18T18:54:34.022Z,10.08
2023-04-18T18:59:36.060Z,10.09
2023-04-18T19:04:37.973Z,10.06
2023-04-18T19:09:39.900Z,10.06
2023-04-18T19:14:42.453Z,10.07
2023-04-18T19:19:44.483Z,10.09
2023-04-18T19:24:46.483Z,10.07
2023-04-18T19:29:48.532Z,10.12
2023-04-18T19:34:51.414Z,10.11
2023-04-18T19:39:53.391Z,10.09
2023-04-18T19:44:56.466Z,10.12
2023-04-18T19:50:02.064Z,10.17
2023-04-18T19:55:04.093Z,10.14
2023-04-18T20:00:12.643Z,10.13
2023-04-18T20:05:16.302Z,10.15
2023-04-18T20:10:23.374Z,10.11
2023-04-18T20:15:25.161Z,10.05
2023-04-18T20:20:28.302Z,9.97
2023-04-18T20:25:30.121Z,9.95
2023-04-18T20:30:32.165Z,9.92
2023-04-18T20:35:34.950Z,9.88
2023-04-18T20:40:39.799Z,9.87
2023-04-18T20:45:43.024Z,9.87
2023-04-18T20:50:51.197Z,9.81
2023-04-18T20:55:53.207Z,9.83
2023-04-18T21:00:54.984Z,9.82
2023-04-18T21:05:56.779Z,9.83
2023-04-18T21:10:58.542Z,9.78
2023-04-18T21:16:02.502Z,9.71
2023-04-18T21:21:04.682Z,9.64
2023-04-18T21:26:06.827Z,9.63
2023-04-18T21:31:08.722Z,9.60
2023-04-18T21:36:12.834Z,9.60
2023-04-18T21:41:22.895Z,9.56
2023-04-18T21:46:25.579Z,9.53
2023-04-18T21:51:27.460Z,9.39
2023-04-18T21:56:29.314Z,9.30
2023-04-18T22:01:31.371Z,9.17
2023-04-18T22:06:33.399Z,9.12
2023-04-18T22:11:35.178Z,9.03
2023-04-18T22:16:38.167Z,8.87
2023-04-18T22:21:39.942Z,8.83
2023-04-18T22:26:41.707Z,8.79
2023-04-18T22:31:43.457Z,8.79
2023-04-18T22:36:45.643Z,8.70
2023-04-18T22:41:47.375Z,8.64
2023-04-18T22:46:49.574Z,8.54
2023-04-18T22:51:54.468Z,8.49
2023-04-18T22:56:56.796Z,8.41
2023-04-18T23:01:58.620Z,8.29
2023-04-18T23:07:00.433Z,8.20
2023-04-18T23:12:05.225Z,8.25
2023-04-18T23:17:07.015Z,8.22
2023-04-18T23:22:08.762Z,8.18
2023-04-18T23:27:10.598Z,8.20
2023-04-18T23:32:12.306Z,8.20
2023-04-18T23:37:14.058Z,8.10
2023-04-18T23:42:15.837Z,8.10
2023-04-18T23:47:17.679Z,8.01
2023-04-18T23:52:19.476Z,8.06
2023-04-18T23:57:21.292Z,8.03
